sensor_id;sensor_type;location;lat;lon;timestamp;temperature;humidity
53368;DHT22;39271;45.618;20.024;2022-07-12T03:46:22;333.20;2227.20
53368;DHT22;39271;45.618;20.024;2022-07-12T03:48:48;333.10;2252.80
53368;DHT22;39271;45.618;20.024;2022-07-12T03:51:13;333.30;2252.80
53368;DHT22;39271;45.618;20.024;2022-07-12T03:53:39;333.40;2252.80
53368;DHT22;39271;45.618;20.024;2022-07-12T03:56:08;333.40;2252.80
53368;DHT22;39271;45.618;20.024;2022-07-12T03:59:05;333.50;2227.20
53368;DHT22;39271;45.618;20.024;2022-07-12T04:01:31;333.50;2227.20
53368;DHT22;39271;45.618;20.024;2022-07-12T04:08:00;333.40;2252.80
53368;DHT22;39271;45.618;20.024;2022-07-12T04:10:27;333.40;2278.40
53368;DHT22;39271;45.618;20.024;2022-07-12T04:12:53;333.40;2278.40
53368;DHT22;39271;45.618;20.024;2022-07-12T04:15:33;333.60;2278.40
53368;DHT22;39271;45.618;20.024;2022-07-12T04:18:17;333.60;2278.40
53368;DHT22;39271;45.618;20.024;2022-07-12T04:20:45;333.60;2252.80
53368;DHT22;39271;45.618;20.024;2022-07-12T04:23:13;333.70;2252.80
53368;DHT22;39271;45.618;20.024;2022-07-12T04:25:42;358.50;2252.80
53368;DHT22;39271;45.618;20.024;2022-07-12T04:28:08;358.50;2252.80
53368;DHT22;39271;45.618;20.024;2022-07-12T04:30:33;358.70;2252.80
53368;DHT22;39271;45.618;20.024;2022-07-12T04:32:59;358.80;2227.20
53368;DHT22;39271;45.618;20.024;2022-07-12T04:35:25;358.90;2227.20
53368;DHT22;39271;45.618;20.024;2022-07-12T04:37:51;359.00;2201.60
53368;DHT22;39271;45.618;20.024;2022-07-12T04:40:19;359.10;2201.60
53368;DHT22;39271;45.618;20.024;2022-07-12T04:42:45;359.30;2150.40
53368;DHT22;39271;45.618;20.024;2022-07-12T04:48:39;384.10;2124.80
53368;DHT22;39271;45.618;20.024;2022-07-12T04:51:05;384.10;2124.80
53368;DHT22;39271;45.618;20.024;2022-07-12T04:53:31;384.30;2124.80
53368;DHT22;39271;45.618;20.024;2022-07-12T04:55:57;384.40;2124.80
53368;DHT22;39271;45.618;20.024;2022-07-12T05:13:23;409.90;2048.00
53368;DHT22;39271;45.618;20.024;2022-07-12T06:32:42;512.50;1612.80
53368;DHT22;39271;45.618;20.024;2022-07-12T07:16:57;563.20;1433.60
53368;DHT22;39271;45.618;20.024;2022-07-12T07:19:33;563.20;1433.60
53368;DHT22;39271;45.618;20.024;2022-07-12T07:21:59;563.30;1408.00
53368;DHT22;39271;45.618;20.024;2022-07-12T07:24:29;563.30;1408.00
53368;DHT22;39271;45.618;20.024;2022-07-12T07:26:55;563.40;1408.00
53368;DHT22;39271;45.618;20.024;2022-07-12T07:29:28;563.50;1408.00
53368;DHT22;39271;45.618;20.024;2022-07-12T07:32:12;563.50;1408.00
53368;DHT22;39271;45.618;20.024;2022-07-12T07:34:38;563.60;1382.40
53368;DHT22;39271;45.618;20.024;2022-07-12T07:37:04;563.60;1382.40
53368;DHT22;39271;45.618;20.024;2022-07-12T07:39:31;563.70;1408.00
53368;DHT22;39271;45.618;20.024;2022-07-12T07:41:59;563.70;1382.40
53368;DHT22;39271;45.618;20.024;2022-07-12T07:44:29;563.80;1382.40
53368;DHT22;39271;45.618;20.024;2022-07-12T07:46:54;563.80;1382.40
53368;DHT22;39271;45.618;20.024;2022-07-12T07:49:20;563.80;1356.80
53368;DHT22;39271;45.618;20.024;2022-07-12T07:51:46;563.90;1356.80
53368;DHT22;39271;45.618;20.024;2022-07-12T07:54:11;564.00;1356.80
53368;DHT22;39271;45.618;20.024;2022-07-12T07:56:38;564.00;1305.60
53368;DHT22;39271;45.618;20.024;2022-07-12T07:59:03;564.10;1305.60
53368;DHT22;39271;45.618;20.024;2022-07-12T08:01:29;564.10;1331.20
53368;DHT22;39271;45.618;20.024;2022-07-12T08:04:15;588.80;1331.20
53368;DHT22;39271;45.618;20.024;2022-07-12T08:06:43;588.90;1331.20
53368;DHT22;39271;45.618;20.024;2022-07-12T08:09:09;588.90;1331.20
53368;DHT22;39271;45.618;20.024;2022-07-12T08:11:35;588.90;1305.60
53368;DHT22;39271;45.618;20.024;2022-07-12T08:14:02;589.00;1305.60
53368;DHT22;39271;45.618;20.024;2022-07-12T08:16:28;589.10;1305.60
53368;DHT22;39271;45.618;20.024;2022-07-12T08:18:54;589.10;1280.00
53368;DHT22;39271;45.618;20.024;2022-07-12T08:21:20;589.10;1280.00
53368;DHT22;39271;45.618;20.024;2022-07-12T08:23:49;589.10;1280.00
53368;DHT22;39271;45.618;20.024;2022-07-12T08:26:16;589.30;1280.00
53368;DHT22;39271;45.618;20.024;2022-07-12T08:28:42;589.30;1280.00
53368;DHT22;39271;45.618;20.024;2022-07-12T08:31:08;589.50;1280.00
53368;DHT22;39271;45.618;20.024;2022-07-12T08:33:34;589.40;1280.00
53368;DHT22;39271;45.618;20.024;2022-07-12T08:36:00;589.40;1280.00
53368;DHT22;39271;45.618;20.024;2022-07-12T08:38:26;589.50;1280.00
53368;DHT22;39271;45.618;20.024;2022-07-12T08:40:52;589.70;1280.00
53368;DHT22;39271;45.618;20.024;2022-07-12T08:43:18;589.70;1254.40
53368;DHT22;39271;45.618;20.024;2022-07-12T08:45:44;589.50;1254.40
53368;DHT22;39271;45.618;20.024;2022-07-12T08:48:12;589.50;1280.00
53368;DHT22;39271;45.618;20.024;2022-07-12T08:50:38;589.50;1280.00
53368;DHT22;39271;45.618;20.024;2022-07-12T08:53:10;589.60;1305.60
53368;DHT22;39271;45.618;20.024;2022-07-12T08:55:37;614.40;1254.40
53368;DHT22;39271;45.618;20.024;2022-07-12T08:58:05;614.50;1254.40
53368;DHT22;39271;45.618;20.024;2022-07-12T09:00:39;614.50;1254.40
53368;DHT22;39271;45.618;20.024;2022-07-12T09:03:08;614.40;1228.80
53368;DHT22;39271;45.618;20.024;2022-07-12T09:05:35;614.50;1254.40
53368;DHT22;39271;45.618;20.024;2022-07-12T09:08:05;614.40;1280.00
53368;DHT22;39271;45.618;20.024;2022-07-12T09:10:33;614.50;1280.00
53368;DHT22;39271;45.618;20.024;2022-07-12T09:12:59;614.50;1638.40
53368;DHT22;39271;45.618;20.024;2022-07-12T09:15:25;614.50;1254.40
53368;DHT22;39271;45.618;20.024;2022-07-12T09:17:58;614.50;1254.40
53368;DHT22;39271;45.618;20.024;2022-07-12T09:20:37;614.70;1280.00
53368;DHT22;39271;45.618;20.024;2022-07-12T09:23:10;614.80;1254.40
53368;DHT22;39271;45.618;20.024;2022-07-12T09:25:37;614.80;1203.20
53368;DHT22;39271;45.618;20.024;2022-07-12T09:28:05;614.80;1254.40
53368;DHT22;39271;45.618;20.024;2022-07-12T09:30:32;614.80;1228.80
53368;DHT22;39271;45.618;20.024;2022-07-12T09:33:01;614.50;1254.40
53368;DHT22;39271;45.618;20.024;2022-07-12T09:36:01;614.50;1228.80
53368;DHT22;39271;45.618;20.024;2022-07-12T09:38:34;615.10;1203.20
53368;DHT22;39271;45.618;20.024;2022-07-12T09:43:33;615.30;1177.60
53368;DHT22;39271;45.618;20.024;2022-07-12T09:46:00;640.20;1152.00
53368;DHT22;39271;45.618;20.024;2022-07-12T09:48:29;615.10;1177.60
53368;DHT22;39271;45.618;20.024;2022-07-12T09:50:57;614.70;1177.60
53368;DHT22;39271;45.618;20.024;2022-07-12T09:53:32;615.20;1177.60
53368;DHT22;39271;45.618;20.024;2022-07-12T09:56:03;640.00;1177.60
53368;DHT22;39271;45.618;20.024;2022-07-12T10:01:16;640.30;1152.00
53368;DHT22;39271;45.618;20.024;2022-07-12T10:03:43;640.40;1126.40
53368;DHT22;39271;45.618;20.024;2022-07-12T10:06:11;640.60;1152.00
53368;DHT22;39271;45.618;20.024;2022-07-12T10:08:37;640.60;1152.00
53368;DHT22;39271;45.618;20.024;2022-07-12T10:11:04;640.60;1152.00
53368;DHT22;39271;45.618;20.024;2022-07-12T10:27:39;640.20;1152.00
53368;DHT22;39271;45.618;20.024;2022-07-12T10:30:16;640.20;1152.00
53368;DHT22;39271;45.618;20.024;2022-07-12T10:32:44;640.30;1075.20
53368;DHT22;39271;45.618;20.024;2022-07-12T10:35:18;640.40;1100.80
53368;DHT22;39271;45.618;20.024;2022-07-12T10:38:22;640.50;1126.40
53368;DHT22;39271;45.618;20.024;2022-07-12T10:40:49;640.30;1126.40
53368;DHT22;39271;45.618;20.024;2022-07-12T10:43:17;640.30;1126.40
53368;DHT22;39271;45.618;20.024;2022-07-12T10:45:47;640.60;1126.40
53368;DHT22;39271;45.618;20.024;2022-07-12T10:53:31;640.80;1126.40
53368;DHT22;39271;45.618;20.024;2022-07-12T10:56:18;640.80;1049.60
53368;DHT22;39271;45.618;20.024;2022-07-12T11:16:22;665.60;1075.20
53368;DHT22;39271;45.618;20.024;2022-07-12T11:18:48;640.80;1049.60
53368;DHT22;39271;45.618;20.024;2022-07-12T11:21:17;640.60;1024.00
53368;DHT22;39271;45.618;20.024;2022-07-12T11:23:49;640.70;1049.60
53368;DHT22;39271;45.618;20.024;2022-07-12T11:26:16;640.80;1024.00
53368;DHT22;39271;45.618;20.024;2022-07-12T11:28:44;640.90;1049.60
53368;DHT22;39271;45.618;20.024;2022-07-12T11:31:15;665.60;1049.60
53368;DHT22;39271;45.618;20.024;2022-07-12T11:33:46;640.80;1049.60
53368;DHT22;39271;45.618;20.024;2022-07-12T11:36:14;640.80;1075.20
53368;DHT22;39271;45.618;20.024;2022-07-12T11:38:42;640.90;1049.60
53368;DHT22;39271;45.618;20.024;2022-07-12T11:41:09;665.60;1075.20
53368;DHT22;39271;45.618;20.024;2022-07-12T11:43:36;665.60;1075.20
53368;DHT22;39271;45.618;20.024;2022-07-12T11:46:04;640.80;1049.60
53368;DHT22;39271;45.618;20.024;2022-07-12T11:48:30;640.60;1049.60
53368;DHT22;39271;45.618;20.024;2022-07-12T11:51:07;640.60;1075.20
53368;DHT22;39271;45.618;20.024;2022-07-12T11:53:34;640.60;1024.00
53368;DHT22;39271;45.618;20.024;2022-07-12T11:56:01;640.80;1075.20
53368;DHT22;39271;45.618;20.024;2022-07-12T11:58:31;640.80;1049.60
53368;DHT22;39271;45.618;20.024;2022-07-12T12:01:04;640.80;1049.60
53368;DHT22;39271;45.618;20.024;2022-07-12T12:03:31;640.60;1049.60
53368;DHT22;39271;45.618;20.024;2022-07-12T12:06:07;640.60;1024.00
53368;DHT22;39271;45.618;20.024;2022-07-12T12:08:33;640.50;1049.60
53368;DHT22;39271;45.618;20.024;2022-07-12T12:10:59;640.40;1049.60
53368;DHT22;39271;45.618;20.024;2022-07-12T12:13:28;640.40;1049.60
53368;DHT22;39271;45.618;20.024;2022-07-12T12:15:55;640.20;1024.00
53368;DHT22;39271;45.618;20.024;2022-07-12T12:18:35;640.30;1024.00
53368;DHT22;39271;45.618;20.024;2022-07-12T12:21:10;640.30;1024.00
53368;DHT22;39271;45.618;20.024;2022-07-12T12:23:38;640.70;1075.20
53368;DHT22;39271;45.618;20.024;2022-07-12T12:26:18;640.80;1049.60
53368;DHT22;39271;45.618;20.024;2022-07-12T12:28:51;640.60;1024.00
53368;DHT22;39271;45.618;20.024;2022-07-12T12:31:19;640.50;1024.00
53368;DHT22;39271;45.618;20.024;2022-07-12T12:33:51;640.40;1024.00
53368;DHT22;39271;45.618;20.024;2022-07-12T12:36:22;640.30;1049.60
53368;DHT22;39271;45.618;20.024;2022-07-12T12:38:50;640.20;1049.60
53368;DHT22;39271;45.618;20.024;2022-07-12T12:41:17;640.10;1049.60
53368;DHT22;39271;45.618;20.024;2022-07-12T12:43:45;640.00;1049.60
53368;DHT22;39271;45.618;20.024;2022-07-12T12:46:10;615.20;1049.60
53368;DHT22;39271;45.618;20.024;2022-07-12T12:48:36;615.20;1049.60
53368;DHT22;39271;45.618;20.024;2022-07-12T12:51:12;615.10;1049.60
53368;DHT22;39271;45.618;20.024;2022-07-12T12:53:41;615.00;1075.20
53368;DHT22;39271;45.618;20.024;2022-07-12T12:56:14;615.00;1075.20
53368;DHT22;39271;45.618;20.024;2022-07-12T12:58:41;614.90;1049.60
53368;DHT22;39271;45.618;20.024;2022-07-12T13:01:08;614.90;1024.00
53368;DHT22;39271;45.618;20.024;2022-07-12T13:03:34;614.90;1049.60
53368;DHT22;39271;45.618;20.024;2022-07-12T13:06:00;614.80;1024.00
53368;DHT22;39271;45.618;20.024;2022-07-12T13:08:27;614.90;1049.60
53368;DHT22;39271;45.618;20.024;2022-07-12T13:10:54;615.00;1049.60
53368;DHT22;39271;45.618;20.024;2022-07-12T13:13:38;615.00;1049.60
53368;DHT22;39271;45.618;20.024;2022-07-12T13:16:05;615.00;1049.60
53368;DHT22;39271;45.618;20.024;2022-07-12T13:18:31;614.80;1049.60
53368;DHT22;39271;45.618;20.024;2022-07-12T13:20:57;615.10;1049.60
53368;DHT22;39271;45.618;20.024;2022-07-12T13:23:23;615.10;1049.60
53368;DHT22;39271;45.618;20.024;2022-07-12T13:25:49;615.10;1049.60
53368;DHT22;39271;45.618;20.024;2022-07-12T13:28:15;615.10;1049.60
53368;DHT22;39271;45.618;20.024;2022-07-12T13:30:41;615.20;1075.20
53368;DHT22;39271;45.618;20.024;2022-07-12T13:33:07;615.20;1049.60
53368;DHT22;39271;45.618;20.024;2022-07-12T13:35:35;615.20;1075.20
53368;DHT22;39271;45.618;20.024;2022-07-12T13:38:02;615.20;1075.20
53368;DHT22;39271;45.618;20.024;2022-07-12T13:40:28;615.00;1075.20
53368;DHT22;39271;45.618;20.024;2022-07-12T13:42:54;615.10;1100.80
53368;DHT22;39271;45.618;20.024;2022-07-12T13:45:24;615.10;1075.20
53368;DHT22;39271;45.618;20.024;2022-07-12T13:47:51;615.10;1075.20
53368;DHT22;39271;45.618;20.024;2022-07-12T13:50:19;615.00;1100.80
53368;DHT22;39271;45.618;20.024;2022-07-12T13:52:46;615.00;1100.80
53368;DHT22;39271;45.618;20.024;2022-07-12T13:55:15;615.00;1100.80
53368;DHT22;39271;45.618;20.024;2022-07-12T13:57:45;615.00;1075.20
53368;DHT22;39271;45.618;20.024;2022-07-12T14:00:16;614.90;1100.80
53368;DHT22;39271;45.618;20.024;2022-07-12T14:02:46;615.00;1075.20
53368;DHT22;39271;45.618;20.024;2022-07-12T14:05:13;615.00;1100.80
53368;DHT22;39271;45.618;20.024;2022-07-12T14:07:39;615.00;1075.20
53368;DHT22;39271;45.618;20.024;2022-07-12T14:10:25;615.00;1100.80
53368;DHT22;39271;45.618;20.024;2022-07-12T14:12:52;615.00;1100.80
53368;DHT22;39271;45.618;20.024;2022-07-12T14:15:18;615.00;1100.80
53368;DHT22;39271;45.618;20.024;2022-07-12T14:17:50;614.80;1100.80
53368;DHT22;39271;45.618;20.024;2022-07-12T14:20:20;614.90;1126.40
53368;DHT22;39271;45.618;20.024;2022-07-12T14:22:48;614.80;1100.80
53368;DHT22;39271;45.618;20.024;2022-07-12T14:25:14;614.80;1100.80
53368;DHT22;39271;45.618;20.024;2022-07-12T14:27:41;614.90;1100.80
53368;DHT22;39271;45.618;20.024;2022-07-12T14:30:12;614.80;1126.40
53368;DHT22;39271;45.618;20.024;2022-07-12T14:32:39;614.80;1126.40
53368;DHT22;39271;45.618;20.024;2022-07-12T14:35:06;614.80;1100.80
53368;DHT22;39271;45.618;20.024;2022-07-12T14:37:33;614.80;1100.80
53368;DHT22;39271;45.618;20.024;2022-07-12T14:39:59;614.70;1126.40
53368;DHT22;39271;45.618;20.024;2022-07-12T14:42:25;614.90;1100.80
53368;DHT22;39271;45.618;20.024;2022-07-12T14:44:51;614.90;1100.80
53368;DHT22;39271;45.618;20.024;2022-07-12T14:47:17;615.00;1100.80
53368;DHT22;39271;45.618;20.024;2022-07-12T14:49:44;615.00;1100.80
53368;DHT22;39271;45.618;20.024;2022-07-12T14:52:10;615.10;1100.80
53368;DHT22;39271;45.618;20.024;2022-07-12T14:54:36;615.20;1100.80
53368;DHT22;39271;45.618;20.024;2022-07-12T14:57:02;615.30;1100.80
53368;DHT22;39271;45.618;20.024;2022-07-12T14:59:31;640.10;1100.80
53368;DHT22;39271;45.618;20.024;2022-07-12T15:01:57;640.20;1126.40
53368;DHT22;39271;45.618;20.024;2022-07-12T15:04:25;640.30;1075.20
53368;DHT22;39271;45.618;20.024;2022-07-12T15:06:51;640.30;1075.20
53368;DHT22;39271;45.618;20.024;2022-07-12T15:09:17;640.40;1075.20
53368;DHT22;39271;45.618;20.024;2022-07-12T15:11:48;640.70;1075.20
53368;DHT22;39271;45.618;20.024;2022-07-12T15:14:14;665.60;1075.20
53368;DHT22;39271;45.618;20.024;2022-07-12T15:16:40;665.60;1075.20
53368;DHT22;39271;45.618;20.024;2022-07-12T15:19:06;665.60;1075.20
53368;DHT22;39271;45.618;20.024;2022-07-12T15:21:32;640.90;1075.20
53368;DHT22;39271;45.618;20.024;2022-07-12T15:23:57;640.70;1075.20
53368;DHT22;39271;45.618;20.024;2022-07-12T15:26:23;640.60;1049.60
53368;DHT22;39271;45.618;20.024;2022-07-12T15:29:02;640.50;1075.20
53368;DHT22;39271;45.618;20.024;2022-07-12T15:31:32;640.50;1075.20
53368;DHT22;39271;45.618;20.024;2022-07-12T15:33:59;640.50;1100.80
53368;DHT22;39271;45.618;20.024;2022-07-12T15:36:25;640.40;1075.20
53368;DHT22;39271;45.618;20.024;2022-07-12T15:38:51;640.30;1049.60
53368;DHT22;39271;45.618;20.024;2022-07-12T15:41:20;640.10;1049.60
53368;DHT22;39271;45.618;20.024;2022-07-12T15:43:47;640.10;1075.20
53368;DHT22;39271;45.618;20.024;2022-07-12T15:46:12;640.00;1049.60
53368;DHT22;39271;45.618;20.024;2022-07-12T15:48:39;615.30;1100.80
53368;DHT22;39271;45.618;20.024;2022-07-12T15:51:05;615.30;1100.80
53368;DHT22;39271;45.618;20.024;2022-07-12T15:53:32;615.10;1100.80
53368;DHT22;39271;45.618;20.024;2022-07-12T15:58:30;615.00;1100.80
53368;DHT22;39271;45.618;20.024;2022-07-12T16:00:56;615.00;1126.40
53368;DHT22;39271;45.618;20.024;2022-07-12T16:03:24;615.00;1100.80
53368;DHT22;39271;45.618;20.024;2022-07-12T16:05:50;615.10;1100.80
53368;DHT22;39271;45.618;20.024;2022-07-12T16:08:16;615.10;1100.80
53368;DHT22;39271;45.618;20.024;2022-07-12T16:10:42;615.30;1100.80
53368;DHT22;39271;45.618;20.024;2022-07-12T16:13:08;615.30;1075.20
53368;DHT22;39271;45.618;20.024;2022-07-12T16:15:35;615.20;1075.20
53368;DHT22;39271;45.618;20.024;2022-07-12T16:18:01;615.10;1100.80
53368;DHT22;39271;45.618;20.024;2022-07-12T16:20:27;615.10;1100.80
53368;DHT22;39271;45.618;20.024;2022-07-12T16:22:54;615.10;1100.80
53368;DHT22;39271;45.618;20.024;2022-07-12T16:25:20;615.10;1100.80
53368;DHT22;39271;45.618;20.024;2022-07-12T16:27:46;615.30;1100.80
53368;DHT22;39271;45.618;20.024;2022-07-12T16:30:11;640.00;1075.20
53368;DHT22;39271;45.618;20.024;2022-07-12T16:32:40;640.10;1075.20
53368;DHT22;39271;45.618;20.024;2022-07-12T16:35:06;640.10;1075.20
53368;DHT22;39271;45.618;20.024;2022-07-12T16:37:32;640.40;1075.20
53368;DHT22;39271;45.618;20.024;2022-07-12T16:40:01;640.30;1075.20
53368;DHT22;39271;45.618;20.024;2022-07-12T16:42:27;640.20;1075.20
53368;DHT22;39271;45.618;20.024;2022-07-12T16:44:53;640.30;1049.60
53368;DHT22;39271;45.618;20.024;2022-07-12T16:47:19;640.30;1049.60
53368;DHT22;39271;45.618;20.024;2022-07-12T16:49:47;640.40;1049.60
53368;DHT22;39271;45.618;20.024;2022-07-12T16:52:13;640.40;1049.60
53368;DHT22;39271;45.618;20.024;2022-07-12T16:54:49;640.40;1049.60
53368;DHT22;39271;45.618;20.024;2022-07-12T16:57:15;640.30;1075.20
53368;DHT22;39271;45.618;20.024;2022-07-12T16:59:43;640.40;1049.60
53368;DHT22;39271;45.618;20.024;2022-07-12T17:02:09;640.30;1049.60
53368;DHT22;39271;45.618;20.024;2022-07-12T17:04:35;640.40;1049.60
53368;DHT22;39271;45.618;20.024;2022-07-12T17:07:01;640.40;1049.60
53368;DHT22;39271;45.618;20.024;2022-07-12T17:09:27;640.40;1049.60
53368;DHT22;39271;45.618;20.024;2022-07-12T17:11:54;640.40;1049.60
53368;DHT22;39271;45.618;20.024;2022-07-12T17:14:20;640.40;1049.60
53368;DHT22;39271;45.618;20.024;2022-07-12T17:16:46;640.40;1049.60
53368;DHT22;39271;45.618;20.024;2022-07-12T17:19:12;640.40;1075.20
53368;DHT22;39271;45.618;20.024;2022-07-12T17:21:43;640.40;1049.60
53368;DHT22;39271;45.618;20.024;2022-07-12T17:24:09;640.20;1075.20
53368;DHT22;39271;45.618;20.024;2022-07-12T17:26:34;640.20;1075.20
53368;DHT22;39271;45.618;20.024;2022-07-12T17:29:00;640.10;1075.20
53368;DHT22;39271;45.618;20.024;2022-07-12T17:31:26;615.30;1075.20
53368;DHT22;39271;45.618;20.024;2022-07-12T17:33:55;615.20;1100.80
53368;DHT22;39271;45.618;20.024;2022-07-12T17:36:20;615.10;1100.80
53368;DHT22;39271;45.618;20.024;2022-07-12T17:38:49;615.10;1100.80
53368;DHT22;39271;45.618;20.024;2022-07-12T17:41:20;615.00;1126.40
53368;DHT22;39271;45.618;20.024;2022-07-12T17:43:54;615.00;1152.00
53368;DHT22;39271;45.618;20.024;2022-07-12T17:46:24;614.90;1177.60
53368;DHT22;39271;45.618;20.024;2022-07-12T17:48:51;614.80;1177.60
53368;DHT22;39271;45.618;20.024;2022-07-12T17:51:19;614.80;1177.60
53368;DHT22;39271;45.618;20.024;2022-07-12T17:53:45;614.60;1203.20
53368;DHT22;39271;45.618;20.024;2022-07-12T17:56:11;614.60;1203.20
53368;DHT22;39271;45.618;20.024;2022-07-12T17:58:36;614.50;1228.80
53368;DHT22;39271;45.618;20.024;2022-07-12T18:01:07;614.40;1254.40
53368;DHT22;39271;45.618;20.024;2022-07-12T18:03:34;589.70;1254.40
53368;DHT22;39271;45.618;20.024;2022-07-12T18:06:00;589.60;1280.00
53368;DHT22;39271;45.618;20.024;2022-07-12T18:08:26;589.50;1280.00
53368;DHT22;39271;45.618;20.024;2022-07-12T18:10:51;589.40;1305.60
53368;DHT22;39271;45.618;20.024;2022-07-12T18:13:17;589.40;1305.60
53368;DHT22;39271;45.618;20.024;2022-07-12T18:16:04;589.30;1331.20
53368;DHT22;39271;45.618;20.024;2022-07-12T18:18:30;589.20;1331.20
53368;DHT22;39271;45.618;20.024;2022-07-12T18:20:56;589.10;1331.20
53368;DHT22;39271;45.618;20.024;2022-07-12T18:23:22;589.10;1356.80
53368;DHT22;39271;45.618;20.024;2022-07-12T18:25:48;588.90;1356.80
53368;DHT22;39271;45.618;20.024;2022-07-12T19:05:47;538.10;1536.00
53368;DHT22;39271;45.618;20.024;2022-07-12T19:08:14;537.90;1536.00
53368;DHT22;39271;45.618;20.024;2022-07-12T19:10:40;537.80;1561.60
53368;DHT22;39271;45.618;20.024;2022-07-12T19:13:06;537.70;1561.60
53368;DHT22;39271;45.618;20.024;2022-07-12T19:15:32;537.60;1587.20
53368;DHT22;39271;45.618;20.024;2022-07-12T19:17:58;512.90;1561.60
53368;DHT22;39271;45.618;20.024;2022-07-12T19:20:23;512.80;1561.60
53368;DHT22;39271;45.618;20.024;2022-07-12T19:22:49;512.80;1561.60
53368;DHT22;39271;45.618;20.024;2022-07-12T19:25:31;512.80;1561.60
53368;DHT22;39271;45.618;20.024;2022-07-12T19:27:57;512.80;1561.60
53368;DHT22;39271;45.618;20.024;2022-07-12T19:30:23;512.70;1587.20
53368;DHT22;39271;45.618;20.024;2022-07-12T19:32:48;512.60;1587.20
53368;DHT22;39271;45.618;20.024;2022-07-12T19:35:14;512.60;1587.20
53368;DHT22;39271;45.618;20.024;2022-07-12T19:37:41;512.60;1587.20
53368;DHT22;39271;45.618;20.024;2022-07-12T19:48:21;512.40;1612.80
53368;DHT22;39271;45.618;20.024;2022-07-12T19:51:20;512.30;1612.80
53368;DHT22;39271;45.618;20.024;2022-07-12T20:00:39;512.10;1638.40
53368;DHT22;39271;45.618;20.024;2022-07-12T20:07:16;487.30;1638.40
53368;DHT22;39271;45.618;20.024;2022-07-12T20:10:06;487.10;1664.00
53368;DHT22;39271;45.618;20.024;2022-07-12T20:12:32;486.70;1664.00
53368;DHT22;39271;45.618;20.024;2022-07-12T20:18:13;486.80;1689.60
53368;DHT22;39271;45.618;20.024;2022-07-12T20:20:39;486.80;1689.60
53368;DHT22;39271;45.618;20.024;2022-07-12T20:23:30;486.80;1715.20
53368;DHT22;39271;45.618;20.024;2022-07-12T21:03:51;461.40;1817.60
53368;DHT22;39271;45.618;20.024;2022-07-12T21:13:09;461.20;1843.20
53368;DHT22;39271;45.618;20.024;2022-07-12T22:09:04;435.50;1996.80
53368;DHT22;39271;45.618;20.024;2022-07-12T22:35:23;410.30;2073.60
53368;DHT22;39271;45.618;20.024;2022-07-12T22:44:54;410.20;2073.60
53368;DHT22;39271;45.618;20.024;2022-07-12T22:47:26;410.20;2073.60
53368;DHT22;39271;45.618;20.024;2022-07-12T22:50:21;410.20;2073.60
53368;DHT22;39271;45.618;20.024;2022-07-12T22:53:41;410.20;2073.60
53368;DHT22;39271;45.618;20.024;2022-07-12T22:56:50;410.20;2073.60
53368;DHT22;39271;45.618;20.024;2022-07-12T22:59:16;409.70;2073.60
53368;DHT22;39271;45.618;20.024;2022-07-12T23:01:47;410.10;2073.60
53368;DHT22;39271;45.618;20.024;2022-07-12T23:04:38;409.90;2099.20
53368;DHT22;39271;45.618;20.024;2022-07-12T23:07:29;410.00;2099.20
53368;DHT22;39271;45.618;20.024;2022-07-12T23:13:51;409.90;2099.20
53368;DHT22;39271;45.618;20.024;2022-07-12T23:20:02;409.90;2099.20
53368;DHT22;39271;45.618;20.024;2022-07-12T23:50:58;409.60;2073.60
53368;DHT22;39271;45.618;20.024;2022-07-12T23:58:33;409.70;2048.00
